LYBE/BEG METAR and TAF weather

Enter ICAO airport designator
Station Type Date Time Source
LYBE METAR 2019/04/25 18:30 UTC NOAA

LYBE 251830Z 13007KT CAVOK 21/09 Q1017 NOSIG


Station Type Date Time Source
LYBE Decoded METAR 2019/04/25 18:30 UTC NOAA

Beograd / Surcin, Serbia and Montenegro (LYBE) 44-49N 020-17E 99M
Apr 25, 2019 - 02:30 PM EDT / 2019.04.25 1830 UTC
Wind: from the SE (130 degrees) at 8 MPH (7 KT):0
Visibility: greater than 7 mile(s):0
Temperature: 69 F (21 C)
Dew Point: 48 F (9 C)
Relative Humidity: 46%
Pressure (altimeter): 30.03 in. Hg (1017 hPa)
ob: LYBE 251830Z 13007KT CAVOK 21/09 Q1017 NOSIG
cycle: 18

Station Type Date Time Source
LYBE TAF 2019/04/25 18:25 UTC NOAA

TAF LYBE 251700Z 2518/2618 15007KT CAVOK TX30/2613Z TN14/2604Z

Example: see airport list